createdAt,value
2017-11-08T00:00:01.002Z,780.76
2017-11-08T00:00:05.404Z,780.78
2017-11-08T00:00:09.358Z,780.78
2017-11-08T00:00:13.445Z,780.8
2017-11-08T00:00:17.275Z,780.75
2017-11-08T00:00:21.090Z,780.69
2017-11-08T00:00:24.901Z,780.73
2017-11-08T00:00:28.711Z,780.7
2017-11-08T00:00:32.791Z,780.74
2017-11-08T00:00:36.999Z,780.76
2017-11-08T00:00:41.228Z,780.75
2017-11-08T00:00:45.046Z,780.75
2017-11-08T00:00:49.260Z,780.74
2017-11-08T00:00:53.349Z,780.75
2017-11-08T00:00:57.699Z,780.75
2017-11-08T00:01:01.905Z,780.76
2017-11-08T00:01:05.985Z,780.76
2017-11-08T00:01:10.205Z,780.75
2017-11-08T00:01:14.277Z,780.74
2017-11-08T00:01:18.363Z,780.75
2017-11-08T00:01:22.324Z,780.75
2017-11-08T00:01:26.657Z,780.75
2017-11-08T00:01:30.471Z,780.76
2017-11-08T00:01:34.811Z,780.73
2017-11-08T00:01:39.012Z,780.73
2017-11-08T00:01:42.837Z,780.74
2017-11-08T00:01:46.956Z,780.72
2017-11-08T00:01:51.304Z,780.73
2017-11-08T00:01:55.126Z,780.75
2017-11-08T00:01:59.214Z,780.71
2017-11-08T00:02:03.219Z,780.7
2017-11-08T00:02:07.172Z,780.75
2017-11-08T00:02:10.856Z,780.74
2017-11-08T00:02:15.062Z,780.73
2017-11-08T00:02:19.276Z,780.74
2017-11-08T00:02:23.524Z,780.71
2017-11-08T00:02:27.348Z,780.71
2017-11-08T00:02:31.163Z,780.71
2017-11-08T00:02:34.984Z,780.72
2017-11-08T00:02:38.928Z,780.74
2017-11-08T00:02:43.015Z,780.75
2017-11-08T00:02:46.972Z,780.69
2017-11-08T00:02:50.920Z,780.66
2017-11-08T00:02:54.740Z,780.67
2017-11-08T00:02:58.818Z,780.68
2017-11-08T00:03:02.895Z,780.65
2017-11-08T00:03:06.844Z,780.72
2017-11-08T00:03:10.656Z,780.71
2017-11-08T00:03:14.599Z,780.7
2017-11-08T00:03:18.824Z,780.73
2017-11-08T00:03:23.171Z,780.67
2017-11-08T00:03:27.248Z,780.71
2017-11-08T00:03:31.079Z,780.74
2017-11-08T00:03:35.288Z,780.73
2017-11-08T00:03:39.231Z,780.74
2017-11-08T00:03:43.175Z,780.73
2017-11-08T00:03:47.128Z,780.71
2017-11-08T00:03:51.079Z,780.71
2017-11-08T00:03:55.163Z,780.72
2017-11-08T00:03:59.133Z,780.75
2017-11-08T00:04:03.093Z,780.71
2017-11-08T00:04:07.172Z,780.73
2017-11-08T00:04:10.988Z,780.72
2017-11-08T00:04:15.195Z,780.76
2017-11-08T00:04:18.874Z,780.75
2017-11-08T00:04:22.964Z,780.77
2017-11-08T00:04:27.045Z,780.75
2017-11-08T00:04:31.121Z,780.78
2017-11-08T00:04:35.078Z,780.72
2017-11-08T00:04:39.019Z,780.74
2017-11-08T00:04:43.118Z,780.75
2017-11-08T00:04:47.196Z,780.76
2017-11-08T00:04:51.401Z,780.76
2017-11-08T00:04:55.614Z,780.77
2017-11-08T00:04:59.690Z,780.76
2017-11-08T00:05:04.067Z,780.78
2017-11-08T00:05:08.012Z,780.79
2017-11-08T00:05:11.953Z,780.79
2017-11-08T00:05:15.902Z,780.8
2017-11-08T00:05:19.854Z,780.81
2017-11-08T00:05:23.812Z,780.85
2017-11-08T00:05:27.626Z,780.81
2017-11-08T00:05:31.837Z,780.81
2017-11-08T00:05:35.521Z,780.82
2017-11-08T00:05:39.602Z,780.83
2017-11-08T00:05:43.567Z,780.81
2017-11-08T00:05:47.515Z,780.8
2017-11-08T00:05:51.467Z,780.83
2017-11-08T00:05:55.414Z,780.86
2017-11-08T00:05:59.354Z,780.86
2017-11-08T00:06:03.369Z,780.85
2017-11-08T00:06:07.320Z,780.87
2017-11-08T00:06:11.136Z,780.91
2017-11-08T00:06:15.083Z,780.88
2017-11-08T00:06:19.038Z,780.9
2017-11-08T00:06:22.986Z,780.92
2017-11-08T00:06:26.931Z,780.89
2017-11-08T00:06:31.142Z,780.92
2017-11-08T00:06:34.958Z,780.89
2017-11-08T00:06:38.637Z,780.9
2017-11-08T00:06:42.732Z,780.9
2017-11-08T00:06:46.986Z,780.89
2017-11-08T00:06:50.931Z,780.94
2017-11-08T00:06:54.892Z,780.94
2017-11-08T00:06:58.975Z,780.94
2017-11-08T00:07:03.052Z,780.94
2017-11-08T00:07:07.005Z,780.92
2017-11-08T00:07:10.820Z,780.93
2017-11-08T00:07:14.899Z,780.94
2017-11-08T00:07:18.999Z,780.94
2017-11-08T00:07:22.811Z,780.96
2017-11-08T00:07:26.627Z,780.9
2017-11-08T00:07:30.704Z,780.9
2017-11-08T00:07:34.651Z,780.93
2017-11-08T00:07:38.469Z,780.92
2017-11-08T00:07:42.153Z,780.93
2017-11-08T00:07:46.131Z,780.98
2017-11-08T00:07:50.345Z,780.97
2017-11-08T00:07:54.290Z,780.98
2017-11-08T00:07:58.373Z,780.97
2017-11-08T00:08:02.780Z,780.99
2017-11-08T00:08:06.863Z,781
2017-11-08T00:08:10.816Z,781.03
2017-11-08T00:08:14.766Z,781.02
2017-11-08T00:08:18.582Z,781.02
2017-11-08T00:08:22.395Z,781.05
2017-11-08T00:08:26.080Z,781.05
2017-11-08T00:08:30.159Z,781.03
2017-11-08T00:08:34.235Z,781.05
2017-11-08T00:08:38.049Z,781.05
2017-11-08T00:08:42.127Z,781.06
2017-11-08T00:08:45.944Z,781.04
2017-11-08T00:08:50.148Z,781.05
2017-11-08T00:08:54.360Z,781.07
2017-11-08T00:08:58.173Z,781.06
2017-11-08T00:09:02.534Z,781.07
2017-11-08T00:09:06.482Z,781.07
2017-11-08T00:09:10.568Z,781.08
2017-11-08T00:09:14.522Z,781.1
2017-11-08T00:09:18.867Z,781.1
2017-11-08T00:09:22.952Z,781.11
2017-11-08T00:09:26.900Z,781.11
2017-11-08T00:09:30.985Z,781.08
2017-11-08T00:09:34.668Z,781.11
2017-11-08T00:09:38.622Z,781.1
2017-11-08T00:09:42.699Z,781.12
2017-11-08T00:09:46.779Z,781.07
2017-11-08T00:09:50.990Z,781.1
2017-11-08T00:09:54.804Z,781.09
2017-11-08T00:09:58.883Z,781.1
2017-11-08T00:10:03.365Z,781.1
2017-11-08T00:10:07.317Z,781.13
2017-11-08T00:10:11.128Z,781.11
2017-11-08T00:10:15.338Z,781.13
2017-11-08T00:10:19.549Z,781.1
2017-11-08T00:10:23.369Z,781.14
2017-11-08T00:10:27.310Z,781.1
2017-11-08T00:10:31.392Z,781.16
2017-11-08T00:10:35.744Z,781.08
2017-11-08T00:10:39.822Z,781.06
2017-11-08T00:10:43.635Z,781.07
2017-11-08T00:10:47.582Z,781.08
2017-11-08T00:10:51.536Z,781.09
2017-11-08T00:10:55.612Z,781.15
2017-11-08T00:10:59.564Z,781.1
2017-11-08T00:11:03.509Z,781.1
2017-11-08T00:11:07.591Z,781.15
2017-11-08T00:11:11.538Z,781.08
2017-11-08T00:11:15.491Z,781.1
2017-11-08T00:11:19.582Z,781.11
2017-11-08T00:11:23.799Z,781.13
2017-11-08T00:11:27.480Z,781.14
2017-11-08T00:11:31.297Z,781.13
2017-11-08T00:11:35.514Z,781.17
2017-11-08T00:11:39.325Z,781.14
2017-11-08T00:11:43.277Z,781.12
2017-11-08T00:11:47.224Z,781.12
2017-11-08T00:11:51.325Z,781.13
2017-11-08T00:11:55.268Z,781.14
2017-11-08T00:11:59.078Z,781.1
2017-11-08T00:12:03.296Z,781.1
2017-11-08T00:12:07.371Z,781.15
2017-11-08T00:12:11.183Z,781.11
2017-11-08T00:12:15.256Z,781.09
2017-11-08T00:12:19.205Z,781.07
2017-11-08T00:12:23.423Z,781.03
2017-11-08T00:12:27.375Z,781.14
2017-11-08T00:12:31.187Z,781.13
2017-11-08T00:12:35.130Z,781.12
2017-11-08T00:12:39.094Z,781.12
2017-11-08T00:12:43.173Z,781.11
2017-11-08T00:12:47.254Z,781.07
2017-11-08T00:12:51.205Z,781.08
2017-11-08T00:12:55.282Z,781.06
2017-11-08T00:12:59.113Z,781.09
2017-11-08T00:13:03.332Z,781.09
2017-11-08T00:13:07.140Z,781.08
2017-11-08T00:13:11.218Z,781.07
2017-11-08T00:13:15.160Z,781.08
2017-11-08T00:13:18.971Z,781.11
2017-11-08T00:13:22.928Z,781.13
2017-11-08T00:13:27.012Z,781.14
2017-11-08T00:13:30.963Z,781.12
2017-11-08T00:13:34.908Z,781.15
2017-11-08T00:13:38.858Z,781.12
2017-11-08T00:13:42.819Z,781.14
2017-11-08T00:13:46.893Z,781.14
2017-11-08T00:13:50.843Z,781.13
2017-11-08T00:13:54.923Z,781.16
2017-11-08T00:13:59.010Z,781.14
2017-11-08T00:14:03.356Z,781.1
2017-11-08T00:14:07.443Z,781.16
2017-11-08T00:14:11.394Z,781.15
2017-11-08T00:14:15.353Z,781.12
2017-11-08T00:14:19.170Z,781.1
2017-11-08T00:14:23.119Z,781.11
2017-11-08T00:14:27.204Z,781.11
2017-11-08T00:14:31.296Z,781.12
2017-11-08T00:14:35.378Z,781.1
2017-11-08T00:14:39.326Z,781.11
2017-11-08T00:14:43.409Z,781.11
2017-11-08T00:14:47.226Z,781.11
2017-11-08T00:14:51.433Z,781.1
2017-11-08T00:14:55.519Z,781.1
2017-11-08T00:14:59.593Z,781.11
2017-11-08T00:15:03.541Z,781.09
2017-11-08T00:15:07.622Z,781.1
2017-11-08T00:15:11.574Z,781.08
2017-11-08T00:15:15.788Z,781.04
2017-11-08T00:15:19.743Z,781.1
2017-11-08T00:15:24.095Z,781.08
2017-11-08T00:15:28.046Z,781.09
2017-11-08T00:15:31.865Z,781.07
2017-11-08T00:15:35.947Z,781.04
2017-11-08T00:15:40.154Z,781.09
2017-11-08T00:15:44.370Z,781.07
2017-11-08T00:15:48.446Z,781.06
2017-11-08T00:15:52.531Z,781.09
2017-11-08T00:15:56.344Z,781.05
2017-11-08T00:16:00.421Z,781.06
2017-11-08T00:16:04.464Z,781.01
2017-11-08T00:16:08.551Z,781.02
2017-11-08T00:16:12.501Z,781
2017-11-08T00:16:16.570Z,781.06
2017-11-08T00:16:20.519Z,781.01
2017-11-08T00:16:24.333Z,781.05
2017-11-08T00:16:28.284Z,781.04
2017-11-08T00:16:32.370Z,781.03
2017-11-08T00:16:36.185Z,781.04
2017-11-08T00:16:40.135Z,781
2017-11-08T00:16:44.211Z,781.01
2017-11-08T00:16:48.284Z,781.03
2017-11-08T00:16:52.100Z,781.01
2017-11-08T00:16:56.177Z,781.01
2017-11-08T00:17:00.266Z,781.01
2017-11-08T00:17:04.479Z,781.01
2017-11-08T00:17:08.435Z,780.99
2017-11-08T00:17:12.394Z,780.98
2017-11-08T00:17:16.479Z,781.02
2017-11-08T00:17:20.556Z,780.96
2017-11-08T00:17:24.635Z,780.96
2017-11-08T00:17:28.444Z,780.93
2017-11-08T00:17:32.262Z,780.98
2017-11-08T00:17:36.341Z,780.99
2017-11-08T00:17:40.283Z,780.96
2017-11-08T00:17:44.492Z,780.98
2017-11-08T00:17:48.569Z,780.98
2017-11-08T00:17:52.387Z,780.99
2017-11-08T00:17:56.203Z,781.01
2017-11-08T00:18:00.415Z,780.97
2017-11-08T00:18:04.100Z,780.98
2017-11-08T00:18:08.049Z,780.99
2017-11-08T00:18:12.267Z,780.99
2017-11-08T00:18:16.336Z,781
2017-11-08T00:18:20.292Z,780.98
2017-11-08T00:18:24.530Z,780.99
2017-11-08T00:18:28.472Z,780.96
2017-11-08T00:18:32.418Z,780.96
2017-11-08T00:18:36.366Z,780.99
2017-11-08T00:18:40.313Z,780.93
2017-11-08T00:18:44.133Z,780.92
2017-11-08T00:18:48.223Z,780.97
2017-11-08T00:18:52.427Z,780.98
2017-11-08T00:18:56.520Z,780.97
2017-11-08T00:19:00.598Z,780.94
2017-11-08T00:19:04.677Z,780.91
2017-11-08T00:19:08.492Z,780.99
2017-11-08T00:19:12.573Z,781.04
2017-11-08T00:19:16.786Z,780.98
2017-11-08T00:19:20.731Z,781
2017-11-08T00:19:24.678Z,780.97
2017-11-08T00:19:28.630Z,780.98
2017-11-08T00:19:32.444Z,780.95
2017-11-08T00:19:36.262Z,780.93
2017-11-08T00:19:40.478Z,780.98
2017-11-08T00:19:44.575Z,780.93
2017-11-08T00:19:48.391Z,780.99
2017-11-08T00:19:52.349Z,781.02
2017-11-08T00:19:56.424Z,781
2017-11-08T00:20:00.640Z,780.99
2017-11-08T00:20:05.155Z,780.98
2017-11-08T00:20:09.373Z,780.98
2017-11-08T00:20:13.458Z,780.99
2017-11-08T00:20:17.539Z,781.02
2017-11-08T00:20:21.487Z,780.99
2017-11-08T00:20:25.434Z,781.02
2017-11-08T00:20:29.525Z,781.01
2017-11-08T00:20:33.608Z,781
2017-11-08T00:20:37.814Z,781.01
2017-11-08T00:20:41.763Z,780.96
2017-11-08T00:20:45.971Z,780.96
2017-11-08T00:20:49.788Z,781
2017-11-08T00:20:53.603Z,781.04
2017-11-08T00:20:57.683Z,781.07
2017-11-08T00:21:02.012Z,781.05
2017-11-08T00:21:05.956Z,781.01
2017-11-08T00:21:10.179Z,781.05
2017-11-08T00:21:14.386Z,781.06
2017-11-08T00:21:18.468Z,780.94
2017-11-08T00:21:22.679Z,781.01
2017-11-08T00:21:26.497Z,781.03
2017-11-08T00:21:30.317Z,781.04
2017-11-08T00:21:34.394Z,781.03
2017-11-08T00:21:38.334Z,781.05
2017-11-08T00:21:42.307Z,781.06
2017-11-08T00:21:46.363Z,781.05
2017-11-08T00:21:50.178Z,781.02
2017-11-08T00:21:53.867Z,781.03
2017-11-08T00:21:57.938Z,781.06
2017-11-08T00:22:01.752Z,781.05
2017-11-08T00:22:06.034Z,781.07
2017-11-08T00:22:10.256Z,781.08
2017-11-08T00:22:14.337Z,781.08
2017-11-08T00:22:18.417Z,781.06
2017-11-08T00:22:22.635Z,781.06
2017-11-08T00:22:26.582Z,781.06
2017-11-08T00:22:30.532Z,781.09
2017-11-08T00:22:34.479Z,781.08
2017-11-08T00:22:38.561Z,781.07
2017-11-08T00:22:42.248Z,781.09
2017-11-08T00:22:46.455Z,781.08
2017-11-08T00:22:50.535Z,781.1
2017-11-08T00:22:54.350Z,781.08
2017-11-08T00:22:58.160Z,781.09
2017-11-08T00:23:02.678Z,781.12
2017-11-08T00:23:06.753Z,781.09
2017-11-08T00:23:10.834Z,781.07
2017-11-08T00:23:14.654Z,781.07
2017-11-08T00:23:18.600Z,781.06
2017-11-08T00:23:22.670Z,781.12
2017-11-08T00:23:26.614Z,781.06
2017-11-08T00:23:30.711Z,781.09
2017-11-08T00:23:34.787Z,781.07
2017-11-08T00:23:39.005Z,781.06
2017-11-08T00:23:43.089Z,781.1
2017-11-08T00:23:47.300Z,781.1
2017-11-08T00:23:51.526Z,781.09
2017-11-08T00:23:55.471Z,781.1
2017-11-08T00:23:59.281Z,781.09
2017-11-08T00:24:03.196Z,781.12
2017-11-08T00:24:07.425Z,781.09
2017-11-08T00:24:11.500Z,781.1
2017-11-08T00:24:15.449Z,781.09
2017-11-08T00:24:19.399Z,781.07
2017-11-08T00:24:23.347Z,781.12
2017-11-08T00:24:27.311Z,781.11
2017-11-08T00:24:31.408Z,781.05
2017-11-08T00:24:35.348Z,781.07
2017-11-08T00:24:39.034Z,781.07
2017-11-08T00:24:43.110Z,781.06
2017-11-08T00:24:47.192Z,781.11
2017-11-08T00:24:51.003Z,781.11
2017-11-08T00:24:54.954Z,781.08
2017-11-08T00:24:58.765Z,781.14
2017-11-08T00:25:02.706Z,781.08
2017-11-08T00:25:06.520Z,781.06
2017-11-08T00:25:10.600Z,781.09
2017-11-08T00:25:14.689Z,781.13
2017-11-08T00:25:18.780Z,781.14
2017-11-08T00:25:22.613Z,781.17
2017-11-08T00:25:26.825Z,781.15
2017-11-08T00:25:30.643Z,781.12
2017-11-08T00:25:34.460Z,781.16
2017-11-08T00:25:38.270Z,781.14
2017-11-08T00:25:42.081Z,781.12
2017-11-08T00:25:46.305Z,781.17
2017-11-08T00:25:50.119Z,781.14
2017-11-08T00:25:54.329Z,781.14
2017-11-08T00:25:58.417Z,781.14
2017-11-08T00:26:02.236Z,781.08
2017-11-08T00:26:06.327Z,781.16
2017-11-08T00:26:10.280Z,781.16
2017-11-08T00:26:14.484Z,781.14
2017-11-08T00:26:18.293Z,781.15
2017-11-08T00:26:22.243Z,781.18
2017-11-08T00:26:26.057Z,781.16
2017-11-08T00:26:30.009Z,781.16
2017-11-08T00:26:34.088Z,781.21
2017-11-08T00:26:38.039Z,781.2
2017-11-08T00:26:41.852Z,781.2
2017-11-08T00:26:46.064Z,781.22
2017-11-08T00:26:50.142Z,781.21
2017-11-08T00:26:54.358Z,781.17
2017-11-08T00:26:58.309Z,781.18
2017-11-08T00:27:02.474Z,781.17
2017-11-08T00:27:06.825Z,781.19
2017-11-08T00:27:10.898Z,781.23
2017-11-08T00:27:14.714Z,781.18
2017-11-08T00:27:18.924Z,781.18
2017-11-08T00:27:23.149Z,781.21
2017-11-08T00:27:27.095Z,781.19
2017-11-08T00:27:30.908Z,781.13
2017-11-08T00:27:34.989Z,781.16
2017-11-08T00:27:39.197Z,781.19
2017-11-08T00:27:43.275Z,781.16
2017-11-08T00:27:47.095Z,781.17
2017-11-08T00:27:51.053Z,781.19
2017-11-08T00:27:55.139Z,781.25
2017-11-08T00:27:59.218Z,781.25
2017-11-08T00:28:03.711Z,781.26
2017-11-08T00:28:07.789Z,781.23
2017-11-08T00:28:11.731Z,781.26
2017-11-08T00:28:15.813Z,781.26
2017-11-08T00:28:20.027Z,781.28
2017-11-08T00:28:24.251Z,781.28
2017-11-08T00:28:28.330Z,781.25
2017-11-08T00:28:32.285Z,781.27
2017-11-08T00:28:36.103Z,781.23
2017-11-08T00:28:40.057Z,781.21
2017-11-08T00:28:44.263Z,781.26
2017-11-08T00:28:48.216Z,781.26
2017-11-08T00:28:52.167Z,781.25
2017-11-08T00:28:56.119Z,781.26
2017-11-08T00:29:00.074Z,781.25
2017-11-08T00:29:04.298Z,781.26
2017-11-08T00:29:08.257Z,781.26
2017-11-08T00:29:12.346Z,781.26
2017-11-08T00:29:16.581Z,781.24
2017-11-08T00:29:20.388Z,781.2
2017-11-08T00:29:24.471Z,781.26
2017-11-08T00:29:28.425Z,781.24
2017-11-08T00:29:32.508Z,781.22
2017-11-08T00:29:36.454Z,781.22
2017-11-08T00:29:40.402Z,781.21
2017-11-08T00:29:44.479Z,781.21
2017-11-08T00:29:48.183Z,781.21
2017-11-08T00:29:52.262Z,781.16
2017-11-08T00:29:56.211Z,781.16
2017-11-08T00:30:00.289Z,781.18
2017-11-08T00:30:04.686Z,781.18
2017-11-08T00:30:08.894Z,781.19
2017-11-08T00:30:12.966Z,781.18
2017-11-08T00:30:17.051Z,781.17
2017-11-08T00:30:21.255Z,781.16
2017-11-08T00:30:25.461Z,781.21
2017-11-08T00:30:29.414Z,781.17
2017-11-08T00:30:33.490Z,781.22
2017-11-08T00:30:37.309Z,781.23
2017-11-08T00:30:41.124Z,781.26
2017-11-08T00:30:45.242Z,781.23
2017-11-08T00:30:49.056Z,781.24
2017-11-08T00:30:52.998Z,781.26
2017-11-08T00:30:56.949Z,781.23
2017-11-08T00:31:01.041Z,781.27
2017-11-08T00:31:05.185Z,781.22
2017-11-08T00:31:09.000Z,781.21
2017-11-08T00:31:13.076Z,781.27
2017-11-08T00:31:17.568Z,781.29
2017-11-08T00:31:21.376Z,781.25
2017-11-08T00:31:25.585Z,781.28
2017-11-08T00:31:29.670Z,781.28
2017-11-08T00:31:33.746Z,781.26
2017-11-08T00:31:38.173Z,781.27
2017-11-08T00:31:42.128Z,781.28
2017-11-08T00:31:46.074Z,781.29
2017-11-08T00:31:50.152Z,781.29
2017-11-08T00:31:54.102Z,781.29
2017-11-08T00:31:58.051Z,781.31
2017-11-08T00:32:02.051Z,781.34
2017-11-08T00:32:06.000Z,781.32
2017-11-08T00:32:10.077Z,781.33
2017-11-08T00:32:14.157Z,781.35
2017-11-08T00:32:18.241Z,781.33
2017-11-08T00:32:22.183Z,781.32
2017-11-08T00:32:26.272Z,781.31
2017-11-08T00:32:30.345Z,781.35
2017-11-08T00:32:34.290Z,781.34
2017-11-08T00:32:38.105Z,781.33
2017-11-08T00:32:42.197Z,781.34
2017-11-08T00:32:45.883Z,781.33
2017-11-08T00:32:49.701Z,781.35
2017-11-08T00:32:53.650Z,781.35
2017-11-08T00:32:57.596Z,781.34
2017-11-08T00:33:01.542Z,781.34
2017-11-08T00:33:05.621Z,781.36
2017-11-08T00:33:09.826Z,781.34
2017-11-08T00:33:13.920Z,781.34
2017-11-08T00:33:18.003Z,781.34
2017-11-08T00:33:22.088Z,781.35
2017-11-08T00:33:25.772Z,781.32
2017-11-08T00:33:29.861Z,781.37
2017-11-08T00:33:33.676Z,781.37
2017-11-08T00:33:37.753Z,781.39
2017-11-08T00:33:41.701Z,781.37
2017-11-08T00:33:45.649Z,781.37
2017-11-08T00:33:49.727Z,781.36
2017-11-08T00:33:53.674Z,781.37
2017-11-08T00:33:57.885Z,781.38
2017-11-08T00:34:01.833Z,781.4
2017-11-08T00:34:05.914Z,781.37
2017-11-08T00:34:09.997Z,781.37
2017-11-08T00:34:14.076Z,781.4
2017-11-08T00:34:18.029Z,781.38
2017-11-08T00:34:22.102Z,781.39
2017-11-08T00:34:26.186Z,781.41
2017-11-08T00:34:30.272Z,781.39
2017-11-08T00:34:34.352Z,781.39
2017-11-08T00:34:38.292Z,781.41
2017-11-08T00:34:42.501Z,781.43
2017-11-08T00:34:46.447Z,781.43
2017-11-08T00:34:50.265Z,781.44
2017-11-08T00:34:53.950Z,781.45
2017-11-08T00:34:58.029Z,781.44
2017-11-08T00:35:01.842Z,781.42
2017-11-08T00:35:05.665Z,781.48
2017-11-08T00:35:09.751Z,781.45
2017-11-08T00:35:13.694Z,781.44
2017-11-08T00:35:17.645Z,781.47
2017-11-08T00:35:21.887Z,781.43
2017-11-08T00:35:25.965Z,781.43
2017-11-08T00:35:29.643Z,781.46
2017-11-08T00:35:33.592Z,781.45
2017-11-08T00:35:37.538Z,781.46
2017-11-08T00:35:41.485Z,781.46
2017-11-08T00:35:45.427Z,781.48
2017-11-08T00:35:49.108Z,781.46
2017-11-08T00:35:53.328Z,781.46
2017-11-08T00:35:57.404Z,781.44
2017-11-08T00:36:01.480Z,781.46
2017-11-08T00:36:05.443Z,781.45
2017-11-08T00:36:09.276Z,781.46
2017-11-08T00:36:13.236Z,781.45
2017-11-08T00:36:17.185Z,781.48
2017-11-08T00:36:21.410Z,781.45
2017-11-08T00:36:25.624Z,781.44
2017-11-08T00:36:29.572Z,781.45
2017-11-08T00:36:33.650Z,781.49
2017-11-08T00:36:37.734Z,781.49
2017-11-08T00:36:41.808Z,781.46
2017-11-08T00:36:45.626Z,781.5
2017-11-08T00:36:49.443Z,781.49
2017-11-08T00:36:53.382Z,781.5
2017-11-08T00:36:57.330Z,781.49
2017-11-08T00:37:01.415Z,781.47
2017-11-08T00:37:05.618Z,781.47
2017-11-08T00:37:09.833Z,781.47
2017-11-08T00:37:14.051Z,781.48
2017-11-08T00:37:17.870Z,781.49
2017-11-08T00:37:22.075Z,781.47
2017-11-08T00:37:26.284Z,781.47
2017-11-08T00:37:29.968Z,781.51
2017-11-08T00:37:33.783Z,781.5
2017-11-08T00:37:37.873Z,781.49
2017-11-08T00:37:41.952Z,781.5
2017-11-08T00:37:45.765Z,781.47
2017-11-08T00:37:49.582Z,781.5
2017-11-08T00:37:53.787Z,781.47
2017-11-08T00:37:57.729Z,781.5
2017-11-08T00:38:01.764Z,781.45
2017-11-08T00:38:05.715Z,781.44
2017-11-08T00:38:09.664Z,781.5
2017-11-08T00:38:13.484Z,781.46
2017-11-08T00:38:17.557Z,781.49
2017-11-08T00:38:21.371Z,781.44
2017-11-08T00:38:25.322Z,781.45
2017-11-08T00:38:29.406Z,781.46
2017-11-08T00:38:33.479Z,781.45
2017-11-08T00:38:37.564Z,781.44
2017-11-08T00:38:41.378Z,781.44
2017-11-08T00:38:45.323Z,781.43
2017-11-08T00:38:49.281Z,781.44
2017-11-08T00:38:53.233Z,781.43
2017-11-08T00:38:57.195Z,781.43
2017-11-08T00:39:01.141Z,781.41
2017-11-08T00:39:05.185Z,781.42
2017-11-08T00:39:09.000Z,781.41
2017-11-08T00:39:12.942Z,781.36
2017-11-08T00:39:17.025Z,781.42
2017-11-08T00:39:21.097Z,781.39
2017-11-08T00:39:24.916Z,781.39
2017-11-08T00:39:28.993Z,781.41
2017-11-08T00:39:33.076Z,781.38
2017-11-08T00:39:36.893Z,781.35
2017-11-08T00:39:40.851Z,781.35
2017-11-08T00:39:45.190Z,781.35
2017-11-08T00:39:49.404Z,781.4
2017-11-08T00:39:53.477Z,781.35
2017-11-08T00:39:57.559Z,781.39
2017-11-08T00:40:01.374Z,781.36
2017-11-08T00:40:05.317Z,781.36
2017-11-08T00:40:09.138Z,781.39
2017-11-08T00:40:13.232Z,781.41
2017-11-08T00:40:17.437Z,781.37
2017-11-08T00:40:21.397Z,781.4
2017-11-08T00:40:25.620Z,781.37
2017-11-08T00:40:29.428Z,781.37
2017-11-08T00:40:33.640Z,781.38
2017-11-08T00:40:37.723Z,781.36
2017-11-08T00:40:41.672Z,781.36
2017-11-08T00:40:45.483Z,781.39
2017-11-08T00:40:49.700Z,781.39
2017-11-08T00:40:53.517Z,781.37
2017-11-08T00:40:57.462Z,781.36
2017-11-08T00:41:01.836Z,781.4
2017-11-08T00:41:06.053Z,781.4
2017-11-08T00:41:10.136Z,781.38
2017-11-08T00:41:14.342Z,781.37
2017-11-08T00:41:18.026Z,781.41
2017-11-08T00:41:21.843Z,781.37
2017-11-08T00:41:25.923Z,781.33
2017-11-08T00:41:30.129Z,781.38
2017-11-08T00:41:33.940Z,781.39
2017-11-08T00:41:38.164Z,781.36
2017-11-08T00:41:42.239Z,781.36
2017-11-08T00:41:46.187Z,781.34
2017-11-08T00:41:50.006Z,781.34
2017-11-08T00:41:53.688Z,781.37
2017-11-08T00:41:57.765Z,781.36
2017-11-08T00:42:02.089Z,781.35
2017-11-08T00:42:06.297Z,781.32
2017-11-08T00:42:10.527Z,781.35
2017-11-08T00:42:14.739Z,781.31
2017-11-08T00:42:18.819Z,781.3
2017-11-08T00:42:22.799Z,781.3
2017-11-08T00:42:26.873Z,781.32
2017-11-08T00:42:30.822Z,781.32
2017-11-08T00:42:34.642Z,781.31
2017-11-08T00:42:38.717Z,781.32
2017-11-08T00:42:42.803Z,781.34
2017-11-08T00:42:46.615Z,781.31
2017-11-08T00:42:50.566Z,781.3
2017-11-08T00:42:54.515Z,781.31
2017-11-08T00:42:58.489Z,781.31
2017-11-08T00:43:02.580Z,781.31
2017-11-08T00:43:06.537Z,781.32
2017-11-08T00:43:10.632Z,781.31
2017-11-08T00:43:14.448Z,781.28
2017-11-08T00:43:18.262Z,781.27
2017-11-08T00:43:22.209Z,781.29
2017-11-08T00:43:26.290Z,781.28
2017-11-08T00:43:30.496Z,781.28
2017-11-08T00:43:34.452Z,781.22
2017-11-08T00:43:38.538Z,781.3
2017-11-08T00:43:42.613Z,781.29
2017-11-08T00:43:46.562Z,781.28
2017-11-08T00:43:50.637Z,781.2
2017-11-08T00:43:54.847Z,781.26
2017-11-08T00:43:58.801Z,781.28
2017-11-08T00:44:02.905Z,781.28
2017-11-08T00:44:06.732Z,781.27
2017-11-08T00:44:10.808Z,781.28
2017-11-08T00:44:14.889Z,781.29
2017-11-08T00:44:18.572Z,781.3
2017-11-08T00:44:22.668Z,781.27
2017-11-08T00:44:26.783Z,781.27
2017-11-08T00:44:30.594Z,781.25
2017-11-08T00:44:34.418Z,781.27
2017-11-08T00:44:38.489Z,781.29
2017-11-08T00:44:42.440Z,781.3
2017-11-08T00:44:46.265Z,781.22
2017-11-08T00:44:50.510Z,781.25
2017-11-08T00:44:54.723Z,781.24
2017-11-08T00:44:58.808Z,781.31
2017-11-08T00:45:03.402Z,781.26
2017-11-08T00:45:07.609Z,781.25
2017-11-08T00:45:11.557Z,781.26
2017-11-08T00:45:15.759Z,781.28
2017-11-08T00:45:19.575Z,781.28
2017-11-08T00:45:23.521Z,781.29
2017-11-08T00:45:27.331Z,781.28
2017-11-08T00:45:31.541Z,781.28
2017-11-08T00:45:35.622Z,781.26
2017-11-08T00:45:39.968Z,781.27
2017-11-08T00:45:44.049Z,781.22
2017-11-08T00:45:48.130Z,781.22
2017-11-08T00:45:52.336Z,781.23
2017-11-08T00:45:56.411Z,781.18
2017-11-08T00:46:00.508Z,781.26
2017-11-08T00:46:04.454Z,781.25
2017-11-08T00:46:08.402Z,781.24
2017-11-08T00:46:12.356Z,781.22
2017-11-08T00:46:16.297Z,781.25
2017-11-08T00:46:20.110Z,781.22
2017-11-08T00:46:24.195Z,781.21
2017-11-08T00:46:28.278Z,781.25
2017-11-08T00:46:32.219Z,781.2
2017-11-08T00:46:36.031Z,781.18
2017-11-08T00:46:40.239Z,781.21
2017-11-08T00:46:44.048Z,781.23
2017-11-08T00:46:48.006Z,781.23
2017-11-08T00:46:51.816Z,781.18
2017-11-08T00:46:56.068Z,781.23
2017-11-08T00:47:00.136Z,781.23
2017-11-08T00:47:03.927Z,781.21
2017-11-08T00:47:07.877Z,781.26
2017-11-08T00:47:11.953Z,781.21
2017-11-08T00:47:15.895Z,781.22
2017-11-08T00:47:19.984Z,781.21
2017-11-08T00:47:23.931Z,781.2
2017-11-08T00:47:28.143Z,781.18
2017-11-08T00:47:31.968Z,781.18
2017-11-08T00:47:35.786Z,781.23
2017-11-08T00:47:39.728Z,781.19
2017-11-08T00:47:43.815Z,781.21
2017-11-08T00:47:47.652Z,781.17
2017-11-08T00:47:52.127Z,781.19
2017-11-08T00:47:56.344Z,781.14
2017-11-08T00:48:00.435Z,781.17
2017-11-08T00:48:05.032Z,781.18
2017-11-08T00:48:09.123Z,781.15
2017-11-08T00:48:13.199Z,781.2
2017-11-08T00:48:16.893Z,781.2
2017-11-08T00:48:20.974Z,781.19
2017-11-08T00:48:24.789Z,781.19
2017-11-08T00:48:28.607Z,781.21
2017-11-08T00:48:32.819Z,781.19
2017-11-08T00:48:37.042Z,781.21
2017-11-08T00:48:41.112Z,781.19
2017-11-08T00:48:45.197Z,781.19
2017-11-08T00:48:49.027Z,781.21
2017-11-08T00:48:52.963Z,781.19
2017-11-08T00:48:57.176Z,781.19
2017-11-08T00:49:01.250Z,781.18
2017-11-08T00:49:05.743Z,781.17
2017-11-08T00:49:09.689Z,781.12
2017-11-08T00:49:13.370Z,781.17
2017-11-08T00:49:17.454Z,781.17
2017-11-08T00:49:21.403Z,781.18
2017-11-08T00:49:25.479Z,781.19
2017-11-08T00:49:29.425Z,781.17
2017-11-08T00:49:33.367Z,781.16
2017-11-08T00:49:37.188Z,781.18
2017-11-08T00:49:41.122Z,781.15
2017-11-08T00:49:45.333Z,781.18
2017-11-08T00:49:49.281Z,781.17
2017-11-08T00:49:53.364Z,781.16
2017-11-08T00:49:57.045Z,781.14
2017-11-08T00:50:01.125Z,781.13
2017-11-08T00:50:05.258Z,781.17
2017-11-08T00:50:09.071Z,781.16
2017-11-08T00:50:13.166Z,781.15
2017-11-08T00:50:17.114Z,781.15